sensor_id;sensor_type;location;lat;lon;timestamp;temperature;humidity
81136;DHT22;70622;50.886;3.890;2023-08-20T00:00:10;20.70;74.60
81136;DHT22;70622;50.886;3.890;2023-08-20T00:02:36;20.70;74.40
81136;DHT22;70622;50.886;3.890;2023-08-20T00:05:02;20.80;74.20
81136;DHT22;70622;50.886;3.890;2023-08-20T00:07:31;21.00;73.40
81136;DHT22;70622;50.886;3.890;2023-08-20T00:09:58;21.10;73.00
81136;DHT22;70622;50.886;3.890;2023-08-20T00:12:23;21.10;72.70
81136;DHT22;70622;50.886;3.890;2023-08-20T00:14:59;21.20;72.40
81136;DHT22;70622;50.886;3.890;2023-08-20T00:17:30;21.20;72.30
81136;DHT22;70622;50.886;3.890;2023-08-20T00:19:56;21.30;71.90
81136;DHT22;70622;50.886;3.890;2023-08-20T00:22:22;21.40;71.60
81136;DHT22;70622;50.886;3.890;2023-08-20T00:24:49;21.40;71.20
81136;DHT22;70622;50.886;3.890;2023-08-20T00:27:15;21.50;71.20
81136;DHT22;70622;50.886;3.890;2023-08-20T00:29:40;21.40;71.30
81136;DHT22;70622;50.886;3.890;2023-08-20T00:32:06;21.40;71.30
81136;DHT22;70622;50.886;3.890;2023-08-20T00:34:33;21.40;71.40
81136;DHT22;70622;50.886;3.890;2023-08-20T00:36:58;21.40;71.70
81136;DHT22;70622;50.886;3.890;2023-08-20T00:39:24;21.40;71.60
81136;DHT22;70622;50.886;3.890;2023-08-20T00:41:49;21.40;71.30
81136;DHT22;70622;50.886;3.890;2023-08-20T00:44:15;21.40;71.10
81136;DHT22;70622;50.886;3.890;2023-08-20T00:46:40;21.40;71.10
81136;DHT22;70622;50.886;3.890;2023-08-20T00:49:06;21.40;71.10
81136;DHT22;70622;50.886;3.890;2023-08-20T00:51:32;21.30;71.30
81136;DHT22;70622;50.886;3.890;2023-08-20T00:53:58;21.40;71.60
81136;DHT22;70622;50.886;3.890;2023-08-20T00:56:24;21.40;71.70
81136;DHT22;70622;50.886;3.890;2023-08-20T00:58:49;21.40;71.60
81136;DHT22;70622;50.886;3.890;2023-08-20T01:01:15;21.40;71.50
81136;DHT22;70622;50.886;3.890;2023-08-20T01:03:41;21.40;71.50
81136;DHT22;70622;50.886;3.890;2023-08-20T01:11:59;21.30;72.10
81136;DHT22;70622;50.886;3.890;2023-08-20T01:14:24;21.30;72.10
81136;DHT22;70622;50.886;3.890;2023-08-20T01:16:50;21.30;72.40
81136;DHT22;70622;50.886;3.890;2023-08-20T01:19:19;21.20;72.60
81136;DHT22;70622;50.886;3.890;2023-08-20T01:27:10;20.90;73.40
81136;DHT22;70622;50.886;3.890;2023-08-20T01:29:45;21.00;73.30
81136;DHT22;70622;50.886;3.890;2023-08-20T01:32:10;20.90;73.40
81136;DHT22;70622;50.886;3.890;2023-08-20T01:34:37;20.90;73.60
81136;DHT22;70622;50.886;3.890;2023-08-20T01:37:02;20.80;73.80
81136;DHT22;70622;50.886;3.890;2023-08-20T01:39:28;20.80;74.10
81136;DHT22;70622;50.886;3.890;2023-08-20T01:41:53;20.80;74.10
81136;DHT22;70622;50.886;3.890;2023-08-20T01:44:19;20.80;74.00
81136;DHT22;70622;50.886;3.890;2023-08-20T01:46:44;20.80;73.70
81136;DHT22;70622;50.886;3.890;2023-08-20T01:49:10;20.90;74.00
81136;DHT22;70622;50.886;3.890;2023-08-20T01:51:35;20.80;73.90
81136;DHT22;70622;50.886;3.890;2023-08-20T01:54:02;20.80;74.00
81136;DHT22;70622;50.886;3.890;2023-08-20T01:56:27;20.70;74.50
81136;DHT22;70622;50.886;3.890;2023-08-20T01:58:53;20.70;74.60
81136;DHT22;70622;50.886;3.890;2023-08-20T02:01:18;20.50;74.50
81136;DHT22;70622;50.886;3.890;2023-08-20T02:03:44;20.50;74.80
81136;DHT22;70622;50.886;3.890;2023-08-20T02:06:09;20.40;74.90
81136;DHT22;70622;50.886;3.890;2023-08-20T02:08:35;20.40;74.90
81136;DHT22;70622;50.886;3.890;2023-08-20T02:11:01;20.30;75.50
81136;DHT22;70622;50.886;3.890;2023-08-20T02:13:27;20.20;75.80
81136;DHT22;70622;50.886;3.890;2023-08-20T02:15:57;20.10;76.10
81136;DHT22;70622;50.886;3.890;2023-08-20T02:18:23;20.10;76.10
81136;DHT22;70622;50.886;3.890;2023-08-20T02:20:48;20.00;76.60
81136;DHT22;70622;50.886;3.890;2023-08-20T02:23:14;19.90;76.70
81136;DHT22;70622;50.886;3.890;2023-08-20T02:25:39;19.90;76.70
81136;DHT22;70622;50.886;3.890;2023-08-20T02:28:05;19.90;76.80
81136;DHT22;70622;50.886;3.890;2023-08-20T02:30:30;19.90;77.20
81136;DHT22;70622;50.886;3.890;2023-08-20T02:32:56;19.90;77.20
81136;DHT22;70622;50.886;3.890;2023-08-20T02:35:21;19.90;77.00
81136;DHT22;70622;50.886;3.890;2023-08-20T02:37:47;20.00;77.00
81136;DHT22;70622;50.886;3.890;2023-08-20T02:40:12;20.00;77.20
81136;DHT22;70622;50.886;3.890;2023-08-20T02:42:39;19.90;77.10
81136;DHT22;70622;50.886;3.890;2023-08-20T02:45:05;19.80;77.70
81136;DHT22;70622;50.886;3.890;2023-08-20T02:47:31;19.70;78.20
81136;DHT22;70622;50.886;3.890;2023-08-20T02:49:56;19.70;78.10
81136;DHT22;70622;50.886;3.890;2023-08-20T02:52:22;19.70;78.00
81136;DHT22;70622;50.886;3.890;2023-08-20T02:54:47;19.80;78.00
81136;DHT22;70622;50.886;3.890;2023-08-20T02:57:13;19.90;77.90
81136;DHT22;70622;50.886;3.890;2023-08-20T02:59:38;20.00;77.50
81136;DHT22;70622;50.886;3.890;2023-08-20T03:02:04;19.90;77.40
81136;DHT22;70622;50.886;3.890;2023-08-20T03:04:29;20.00;77.30
81136;DHT22;70622;50.886;3.890;2023-08-20T03:06:55;20.00;78.20
81136;DHT22;70622;50.886;3.890;2023-08-20T03:09:20;20.00;77.20
81136;DHT22;70622;50.886;3.890;2023-08-20T03:11:46;20.00;77.20
81136;DHT22;70622;50.886;3.890;2023-08-20T03:14:12;20.00;77.20
81136;DHT22;70622;50.886;3.890;2023-08-20T03:16:37;20.20;77.10
81136;DHT22;70622;50.886;3.890;2023-08-20T03:19:03;20.10;77.00
81136;DHT22;70622;50.886;3.890;2023-08-20T03:21:29;20.00;77.10
81136;DHT22;70622;50.886;3.890;2023-08-20T03:23:55;20.10;77.30
81136;DHT22;70622;50.886;3.890;2023-08-20T03:26:20;20.00;77.40
81136;DHT22;70622;50.886;3.890;2023-08-20T03:28:46;19.80;77.50
81136;DHT22;70622;50.886;3.890;2023-08-20T03:31:11;19.70;78.00
81136;DHT22;70622;50.886;3.890;2023-08-20T03:33:37;19.70;78.30
81136;DHT22;70622;50.886;3.890;2023-08-20T03:36:02;19.70;78.40
81136;DHT22;70622;50.886;3.890;2023-08-20T03:38:28;19.60;78.20
81136;DHT22;70622;50.886;3.890;2023-08-20T03:40:54;19.60;78.30
81136;DHT22;70622;50.886;3.890;2023-08-20T03:43:20;19.40;79.00
81136;DHT22;70622;50.886;3.890;2023-08-20T03:45:49;19.40;79.30
81136;DHT22;70622;50.886;3.890;2023-08-20T03:48:14;19.40;79.00
81136;DHT22;70622;50.886;3.890;2023-08-20T03:50:40;19.20;79.50
81136;DHT22;70622;50.886;3.890;2023-08-20T03:53:05;19.20;79.80
81136;DHT22;70622;50.886;3.890;2023-08-20T03:55:31;19.10;79.80
81136;DHT22;70622;50.886;3.890;2023-08-20T03:57:56;19.10;80.70
81136;DHT22;70622;50.886;3.890;2023-08-20T04:00:22;19.10;80.30
81136;DHT22;70622;50.886;3.890;2023-08-20T04:02:47;19.10;79.90
81136;DHT22;70622;50.886;3.890;2023-08-20T04:05:13;19.10;79.70
81136;DHT22;70622;50.886;3.890;2023-08-20T04:07:39;19.10;79.90
81136;DHT22;70622;50.886;3.890;2023-08-20T04:10:04;19.00;80.00
81136;DHT22;70622;50.886;3.890;2023-08-20T04:12:30;19.00;80.00
81136;DHT22;70622;50.886;3.890;2023-08-20T04:14:56;19.00;80.10
81136;DHT22;70622;50.886;3.890;2023-08-20T04:17:21;19.00;80.00
81136;DHT22;70622;50.886;3.890;2023-08-20T04:19:47;19.00;80.00
81136;DHT22;70622;50.886;3.890;2023-08-20T04:22:12;18.90;80.00
81136;DHT22;70622;50.886;3.890;2023-08-20T04:24:38;19.00;80.00
81136;DHT22;70622;50.886;3.890;2023-08-20T04:27:04;19.00;79.70
81136;DHT22;70622;50.886;3.890;2023-08-20T04:29:29;19.00;79.70
81136;DHT22;70622;50.886;3.890;2023-08-20T04:31:55;18.90;79.90
81136;DHT22;70622;50.886;3.890;2023-08-20T04:34:20;18.90;80.00
81136;DHT22;70622;50.886;3.890;2023-08-20T04:36:46;18.80;80.10
81136;DHT22;70622;50.886;3.890;2023-08-20T04:39:11;18.80;80.80
81136;DHT22;70622;50.886;3.890;2023-08-20T04:41:37;18.70;81.00
81136;DHT22;70622;50.886;3.890;2023-08-20T04:44:03;18.70;81.40
81136;DHT22;70622;50.886;3.890;2023-08-20T04:46:28;18.60;81.40
81136;DHT22;70622;50.886;3.890;2023-08-20T04:48:54;18.50;81.70
81136;DHT22;70622;50.886;3.890;2023-08-20T04:51:19;18.50;81.50
81136;DHT22;70622;50.886;3.890;2023-08-20T04:53:45;18.50;81.60
81136;DHT22;70622;50.886;3.890;2023-08-20T04:56:12;18.50;81.80
81136;DHT22;70622;50.886;3.890;2023-08-20T04:58:38;18.40;81.70
81136;DHT22;70622;50.886;3.890;2023-08-20T05:01:04;18.50;81.60
81136;DHT22;70622;50.886;3.890;2023-08-20T05:03:31;18.50;81.30
81136;DHT22;70622;50.886;3.890;2023-08-20T05:05:56;18.40;81.10
81136;DHT22;70622;50.886;3.890;2023-08-20T05:08:22;18.50;81.30
81136;DHT22;70622;50.886;3.890;2023-08-20T05:10:49;18.50;81.40
81136;DHT22;70622;50.886;3.890;2023-08-20T05:13:14;18.50;81.30
81136;DHT22;70622;50.886;3.890;2023-08-20T05:15:40;18.60;80.90
81136;DHT22;70622;50.886;3.890;2023-08-20T05:18:05;18.60;80.50
81136;DHT22;70622;50.886;3.890;2023-08-20T05:20:31;18.60;80.40
81136;DHT22;70622;50.886;3.890;2023-08-20T05:22:56;18.60;80.40
81136;DHT22;70622;50.886;3.890;2023-08-20T05:25:22;18.70;80.60
81136;DHT22;70622;50.886;3.890;2023-08-20T05:27:47;18.60;80.80
81136;DHT22;70622;50.886;3.890;2023-08-20T05:30:13;18.70;80.70
81136;DHT22;70622;50.886;3.890;2023-08-20T05:32:38;18.70;80.40
81136;DHT22;70622;50.886;3.890;2023-08-20T05:35:04;18.80;80.20
81136;DHT22;70622;50.886;3.890;2023-08-20T05:37:30;18.90;79.80
81136;DHT22;70622;50.886;3.890;2023-08-20T05:39:55;18.90;79.60
81136;DHT22;70622;50.886;3.890;2023-08-20T05:42:21;18.90;79.60
81136;DHT22;70622;50.886;3.890;2023-08-20T05:44:46;18.80;79.90
81136;DHT22;70622;50.886;3.890;2023-08-20T05:47:12;19.00;79.70
81136;DHT22;70622;50.886;3.890;2023-08-20T05:49:37;19.10;79.20
81136;DHT22;70622;50.886;3.890;2023-08-20T05:52:03;19.20;78.90
81136;DHT22;70622;50.886;3.890;2023-08-20T05:54:29;19.30;78.40
81136;DHT22;70622;50.886;3.890;2023-08-20T05:56:54;19.40;77.90
81136;DHT22;70622;50.886;3.890;2023-08-20T05:59:20;19.50;77.40
81136;DHT22;70622;50.886;3.890;2023-08-20T06:01:45;19.60;77.00
81136;DHT22;70622;50.886;3.890;2023-08-20T06:04:11;19.70;76.50
81136;DHT22;70622;50.886;3.890;2023-08-20T06:06:36;19.90;75.60
81136;DHT22;70622;50.886;3.890;2023-08-20T06:09:02;20.00;75.20
81136;DHT22;70622;50.886;3.890;2023-08-20T06:11:27;20.10;74.90
81136;DHT22;70622;50.886;3.890;2023-08-20T06:13:53;20.20;74.30
81136;DHT22;70622;50.886;3.890;2023-08-20T06:16:18;20.20;74.30
81136;DHT22;70622;50.886;3.890;2023-08-20T06:18:44;20.30;74.30
81136;DHT22;70622;50.886;3.890;2023-08-20T06:21:09;20.30;75.00
81136;DHT22;70622;50.886;3.890;2023-08-20T06:23:35;20.40;73.50
81136;DHT22;70622;50.886;3.890;2023-08-20T06:26:01;20.40;73.70
81136;DHT22;70622;50.886;3.890;2023-08-20T06:28:26;20.50;74.10
81136;DHT22;70622;50.886;3.890;2023-08-20T06:30:52;20.40;73.50
81136;DHT22;70622;50.886;3.890;2023-08-20T06:33:17;20.50;72.90
81136;DHT22;70622;50.886;3.890;2023-08-20T06:35:43;20.60;72.40
81136;DHT22;70622;50.886;3.890;2023-08-20T06:38:08;20.60;71.70
81136;DHT22;70622;50.886;3.890;2023-08-20T06:40:34;20.60;71.90
81136;DHT22;70622;50.886;3.890;2023-08-20T06:42:59;20.60;71.80
81136;DHT22;70622;50.886;3.890;2023-08-20T06:45:25;20.60;71.80
81136;DHT22;70622;50.886;3.890;2023-08-20T06:47:50;20.50;70.90
81136;DHT22;70622;50.886;3.890;2023-08-20T06:50:16;20.50;71.40
81136;DHT22;70622;50.886;3.890;2023-08-20T06:52:42;20.70;71.10
81136;DHT22;70622;50.886;3.890;2023-08-20T06:55:07;20.80;70.60
81136;DHT22;70622;50.886;3.890;2023-08-20T06:57:33;20.90;70.10
81136;DHT22;70622;50.886;3.890;2023-08-20T06:59:59;21.10;69.30
81136;DHT22;70622;50.886;3.890;2023-08-20T07:02:24;21.10;67.40
81136;DHT22;70622;50.886;3.890;2023-08-20T07:04:50;21.30;64.50
81136;DHT22;70622;50.886;3.890;2023-08-20T07:07:15;21.20;63.20
81136;DHT22;70622;50.886;3.890;2023-08-20T07:09:41;21.10;63.30
81136;DHT22;70622;50.886;3.890;2023-08-20T07:12:07;21.20;63.00
81136;DHT22;70622;50.886;3.890;2023-08-20T07:14:32;21.10;64.10
81136;DHT22;70622;50.886;3.890;2023-08-20T07:16:58;21.20;64.20
81136;DHT22;70622;50.886;3.890;2023-08-20T07:19:25;21.20;64.30
81136;DHT22;70622;50.886;3.890;2023-08-20T07:21:50;21.10;64.80
81136;DHT22;70622;50.886;3.890;2023-08-20T07:24:16;21.10;65.50
81136;DHT22;70622;50.886;3.890;2023-08-20T07:26:41;21.20;65.60
81136;DHT22;70622;50.886;3.890;2023-08-20T07:29:07;21.20;64.70
81136;DHT22;70622;50.886;3.890;2023-08-20T07:31:33;21.20;64.00
81136;DHT22;70622;50.886;3.890;2023-08-20T07:34:01;21.30;64.30
81136;DHT22;70622;50.886;3.890;2023-08-20T07:36:28;21.40;63.70
81136;DHT22;70622;50.886;3.890;2023-08-20T07:38:54;21.40;62.60
81136;DHT22;70622;50.886;3.890;2023-08-20T07:41:20;21.50;62.20
81136;DHT22;70622;50.886;3.890;2023-08-20T07:43:46;21.60;62.60
81136;DHT22;70622;50.886;3.890;2023-08-20T07:46:12;21.70;62.80
81136;DHT22;70622;50.886;3.890;2023-08-20T07:48:38;21.90;62.60
81136;DHT22;70622;50.886;3.890;2023-08-20T07:51:03;21.90;61.50
81136;DHT22;70622;50.886;3.890;2023-08-20T07:53:29;22.00;60.40
81136;DHT22;70622;50.886;3.890;2023-08-20T07:55:55;22.00;61.40
81136;DHT22;70622;50.886;3.890;2023-08-20T07:58:20;21.90;60.40
81136;DHT22;70622;50.886;3.890;2023-08-20T08:00:46;22.00;61.30
81136;DHT22;70622;50.886;3.890;2023-08-20T08:03:12;21.90;60.40
81136;DHT22;70622;50.886;3.890;2023-08-20T08:05:46;21.90;60.50
81136;DHT22;70622;50.886;3.890;2023-08-20T08:08:12;22.00;60.60
81136;DHT22;70622;50.886;3.890;2023-08-20T08:10:38;22.10;60.70
81136;DHT22;70622;50.886;3.890;2023-08-20T08:13:03;22.10;60.10
81136;DHT22;70622;50.886;3.890;2023-08-20T08:15:29;22.20;59.50
81136;DHT22;70622;50.886;3.890;2023-08-20T08:17:54;22.30;59.60
81136;DHT22;70622;50.886;3.890;2023-08-20T08:20:20;22.50;59.30
81136;DHT22;70622;50.886;3.890;2023-08-20T08:22:46;22.50;59.20
81136;DHT22;70622;50.886;3.890;2023-08-20T08:25:12;22.60;58.50
81136;DHT22;70622;50.886;3.890;2023-08-20T08:27:38;22.60;57.30
81136;DHT22;70622;50.886;3.890;2023-08-20T08:30:04;22.70;57.10
81136;DHT22;70622;50.886;3.890;2023-08-20T08:32:29;22.80;56.50
81136;DHT22;70622;50.886;3.890;2023-08-20T08:34:55;22.80;56.20
81136;DHT22;70622;50.886;3.890;2023-08-20T08:37:20;22.90;56.60
81136;DHT22;70622;50.886;3.890;2023-08-20T08:39:46;22.90;55.70
81136;DHT22;70622;50.886;3.890;2023-08-20T08:42:11;23.10;54.50
81136;DHT22;70622;50.886;3.890;2023-08-20T08:44:38;23.20;53.80
81136;DHT22;70622;50.886;3.890;2023-08-20T08:47:06;23.10;53.30
81136;DHT22;70622;50.886;3.890;2023-08-20T08:49:33;23.30;53.20
81136;DHT22;70622;50.886;3.890;2023-08-20T08:51:58;23.30;54.10
81136;DHT22;70622;50.886;3.890;2023-08-20T08:54:24;23.30;52.90
81136;DHT22;70622;50.886;3.890;2023-08-20T08:56:50;23.40;53.60
81136;DHT22;70622;50.886;3.890;2023-08-20T08:59:16;23.50;52.70
81136;DHT22;70622;50.886;3.890;2023-08-20T09:01:41;23.40;52.50
81136;DHT22;70622;50.886;3.890;2023-08-20T09:04:07;23.60;53.10
81136;DHT22;70622;50.886;3.890;2023-08-20T09:06:46;23.50;54.50
81136;DHT22;70622;50.886;3.890;2023-08-20T09:09:12;23.40;54.90
81136;DHT22;70622;50.886;3.890;2023-08-20T09:11:38;23.30;54.90
81136;DHT22;70622;50.886;3.890;2023-08-20T09:14:03;23.40;55.20
81136;DHT22;70622;50.886;3.890;2023-08-20T09:16:30;23.40;55.00
81136;DHT22;70622;50.886;3.890;2023-08-20T09:18:57;23.60;54.60
81136;DHT22;70622;50.886;3.890;2023-08-20T09:21:26;23.70;54.00
81136;DHT22;70622;50.886;3.890;2023-08-20T09:23:53;23.80;54.10
81136;DHT22;70622;50.886;3.890;2023-08-20T09:26:19;23.80;54.00
81136;DHT22;70622;50.886;3.890;2023-08-20T09:28:45;23.70;54.10
81136;DHT22;70622;50.886;3.890;2023-08-20T09:31:11;24.00;54.30
81136;DHT22;70622;50.886;3.890;2023-08-20T09:33:43;24.00;53.80
81136;DHT22;70622;50.886;3.890;2023-08-20T09:36:13;24.00;53.10
81136;DHT22;70622;50.886;3.890;2023-08-20T09:38:39;24.00;53.30
81136;DHT22;70622;50.886;3.890;2023-08-20T09:41:04;24.00;53.20
81136;DHT22;70622;50.886;3.890;2023-08-20T09:43:30;24.20;52.70
81136;DHT22;70622;50.886;3.890;2023-08-20T09:45:57;24.20;52.90
81136;DHT22;70622;50.886;3.890;2023-08-20T09:48:25;24.10;52.80
81136;DHT22;70622;50.886;3.890;2023-08-20T09:50:53;24.10;52.90
81136;DHT22;70622;50.886;3.890;2023-08-20T09:53:31;24.10;53.20
81136;DHT22;70622;50.886;3.890;2023-08-20T09:56:02;24.20;52.00
81136;DHT22;70622;50.886;3.890;2023-08-20T09:58:29;24.40;51.60
81136;DHT22;70622;50.886;3.890;2023-08-20T10:00:55;24.20;50.80
81136;DHT22;70622;50.886;3.890;2023-08-20T10:03:21;24.40;50.40
81136;DHT22;70622;50.886;3.890;2023-08-20T10:05:48;24.50;50.40
81136;DHT22;70622;50.886;3.890;2023-08-20T10:08:14;24.70;51.20
81136;DHT22;70622;50.886;3.890;2023-08-20T10:10:40;24.80;50.70
81136;DHT22;70622;50.886;3.890;2023-08-20T10:13:06;25.00;50.60
81136;DHT22;70622;50.886;3.890;2023-08-20T10:15:31;25.00;51.80
81136;DHT22;70622;50.886;3.890;2023-08-20T10:17:58;25.20;49.50
81136;DHT22;70622;50.886;3.890;2023-08-20T10:20:24;25.20;49.80
81136;DHT22;70622;50.886;3.890;2023-08-20T10:22:54;25.20;47.20
81136;DHT22;70622;50.886;3.890;2023-08-20T10:25:25;25.10;46.30
81136;DHT22;70622;50.886;3.890;2023-08-20T10:27:51;25.20;46.30
81136;DHT22;70622;50.886;3.890;2023-08-20T10:30:24;25.30;46.40
81136;DHT22;70622;50.886;3.890;2023-08-20T10:32:51;25.30;45.70
81136;DHT22;70622;50.886;3.890;2023-08-20T10:35:18;25.40;47.30
81136;DHT22;70622;50.886;3.890;2023-08-20T10:48:39;25.20;47.40
81136;DHT22;70622;50.886;3.890;2023-08-20T10:51:15;25.40;48.70
81136;DHT22;70622;50.886;3.890;2023-08-20T10:53:42;25.30;46.70
81136;DHT22;70622;50.886;3.890;2023-08-20T10:56:08;25.30;46.20
81136;DHT22;70622;50.886;3.890;2023-08-20T10:58:34;25.40;47.00
81136;DHT22;70622;50.886;3.890;2023-08-20T11:01:17;25.60;46.00
81136;DHT22;70622;50.886;3.890;2023-08-20T11:03:44;25.60;44.20
81136;DHT22;70622;50.886;3.890;2023-08-20T11:06:10;25.70;44.40
81136;DHT22;70622;50.886;3.890;2023-08-20T11:08:36;25.70;44.20
81136;DHT22;70622;50.886;3.890;2023-08-20T11:11:02;25.60;44.20
81136;DHT22;70622;50.886;3.890;2023-08-20T11:13:29;25.70;43.90
81136;DHT22;70622;50.886;3.890;2023-08-20T11:15:55;25.70;43.30
81136;DHT22;70622;50.886;3.890;2023-08-20T11:18:20;25.90;44.20
81136;DHT22;70622;50.886;3.890;2023-08-20T11:20:46;25.80;44.80
81136;DHT22;70622;50.886;3.890;2023-08-20T11:23:11;25.90;44.10
81136;DHT22;70622;50.886;3.890;2023-08-20T11:25:41;25.90;44.50
81136;DHT22;70622;50.886;3.890;2023-08-20T11:28:07;26.00;45.60
81136;DHT22;70622;50.886;3.890;2023-08-20T11:30:33;26.10;45.40
81136;DHT22;70622;50.886;3.890;2023-08-20T11:32:58;26.10;45.80
81136;DHT22;70622;50.886;3.890;2023-08-20T11:35:24;26.00;46.00
81136;DHT22;70622;50.886;3.890;2023-08-20T11:37:51;25.90;45.80
81136;DHT22;70622;50.886;3.890;2023-08-20T11:40:17;25.90;46.60
81136;DHT22;70622;50.886;3.890;2023-08-20T11:42:42;25.90;48.50
81136;DHT22;70622;50.886;3.890;2023-08-20T11:45:09;26.00;47.20
81136;DHT22;70622;50.886;3.890;2023-08-20T11:47:41;26.10;46.10
81136;DHT22;70622;50.886;3.890;2023-08-20T11:50:08;26.20;45.70
81136;DHT22;70622;50.886;3.890;2023-08-20T11:52:34;26.30;45.20
81136;DHT22;70622;50.886;3.890;2023-08-20T11:55:00;26.50;45.10
81136;DHT22;70622;50.886;3.890;2023-08-20T11:57:28;26.50;44.90
81136;DHT22;70622;50.886;3.890;2023-08-20T11:59:53;26.50;45.10
81136;DHT22;70622;50.886;3.890;2023-08-20T12:02:26;26.50;45.00
81136;DHT22;70622;50.886;3.890;2023-08-20T12:04:54;26.50;45.00
81136;DHT22;70622;50.886;3.890;2023-08-20T12:07:20;26.60;45.70
81136;DHT22;70622;50.886;3.890;2023-08-20T12:09:49;26.50;43.70
81136;DHT22;70622;50.886;3.890;2023-08-20T12:12:15;26.50;44.40
81136;DHT22;70622;50.886;3.890;2023-08-20T12:14:44;26.50;44.90
81136;DHT22;70622;50.886;3.890;2023-08-20T12:17:09;26.40;44.60
81136;DHT22;70622;50.886;3.890;2023-08-20T12:19:35;26.70;44.00
81136;DHT22;70622;50.886;3.890;2023-08-20T12:22:00;26.80;43.20
81136;DHT22;70622;50.886;3.890;2023-08-20T12:24:26;26.90;43.00
81136;DHT22;70622;50.886;3.890;2023-08-20T12:26:51;26.90;42.60
81136;DHT22;70622;50.886;3.890;2023-08-20T12:29:18;27.10;43.50
81136;DHT22;70622;50.886;3.890;2023-08-20T12:31:43;27.10;42.60
81136;DHT22;70622;50.886;3.890;2023-08-20T12:34:09;27.20;43.20
81136;DHT22;70622;50.886;3.890;2023-08-20T12:36:35;27.20;43.20
81136;DHT22;70622;50.886;3.890;2023-08-20T12:39:01;27.10;43.70
81136;DHT22;70622;50.886;3.890;2023-08-20T12:41:26;26.90;44.20
81136;DHT22;70622;50.886;3.890;2023-08-20T12:43:52;26.70;44.10
81136;DHT22;70622;50.886;3.890;2023-08-20T12:46:17;26.70;44.10
81136;DHT22;70622;50.886;3.890;2023-08-20T12:48:43;26.80;44.50
81136;DHT22;70622;50.886;3.890;2023-08-20T12:51:08;26.80;44.20
81136;DHT22;70622;50.886;3.890;2023-08-20T12:53:37;26.90;44.70
81136;DHT22;70622;50.886;3.890;2023-08-20T12:56:03;27.20;42.90
81136;DHT22;70622;50.886;3.890;2023-08-20T12:58:29;27.40;42.90
81136;DHT22;70622;50.886;3.890;2023-08-20T13:00:54;27.70;42.00
81136;DHT22;70622;50.886;3.890;2023-08-20T13:03:20;27.90;42.00
81136;DHT22;70622;50.886;3.890;2023-08-20T13:05:46;27.90;41.80
81136;DHT22;70622;50.886;3.890;2023-08-20T13:08:11;27.90;41.50
81136;DHT22;70622;50.886;3.890;2023-08-20T13:10:40;28.00;41.00
81136;DHT22;70622;50.886;3.890;2023-08-20T13:13:07;28.60;41.80
81136;DHT22;70622;50.886;3.890;2023-08-20T13:15:34;28.90;40.30
81136;DHT22;70622;50.886;3.890;2023-08-20T13:18:00;29.60;39.40
81136;DHT22;70622;50.886;3.890;2023-08-20T13:20:25;30.20;37.90
81136;DHT22;70622;50.886;3.890;2023-08-20T13:22:52;30.60;37.10
81136;DHT22;70622;50.886;3.890;2023-08-20T13:25:18;30.60;36.40
81136;DHT22;70622;50.886;3.890;2023-08-20T13:27:46;30.90;37.00
81136;DHT22;70622;50.886;3.890;2023-08-20T13:30:12;30.90;37.10
81136;DHT22;70622;50.886;3.890;2023-08-20T13:32:38;31.00;37.10
81136;DHT22;70622;50.886;3.890;2023-08-20T13:35:04;30.90;36.20
81136;DHT22;70622;50.886;3.890;2023-08-20T13:37:30;31.30;35.40
81136;DHT22;70622;50.886;3.890;2023-08-20T13:39:56;31.50;35.00
81136;DHT22;70622;50.886;3.890;2023-08-20T13:42:22;31.90;35.30
81136;DHT22;70622;50.886;3.890;2023-08-20T13:44:48;32.00;36.10
81136;DHT22;70622;50.886;3.890;2023-08-20T13:47:13;32.40;34.10
81136;DHT22;70622;50.886;3.890;2023-08-20T13:49:39;32.20;33.30
81136;DHT22;70622;50.886;3.890;2023-08-20T13:52:04;32.10;33.60
81136;DHT22;70622;50.886;3.890;2023-08-20T13:54:30;32.30;34.40
81136;DHT22;70622;50.886;3.890;2023-08-20T13:56:56;32.20;33.40
81136;DHT22;70622;50.886;3.890;2023-08-20T13:59:22;32.10;33.70
81136;DHT22;70622;50.886;3.890;2023-08-20T14:01:48;32.20;33.50
81136;DHT22;70622;50.886;3.890;2023-08-20T14:04:13;32.00;33.80
81136;DHT22;70622;50.886;3.890;2023-08-20T14:06:39;32.00;34.80
81136;DHT22;70622;50.886;3.890;2023-08-20T14:09:04;32.10;35.10
81136;DHT22;70622;50.886;3.890;2023-08-20T14:11:30;32.10;34.10
81136;DHT22;70622;50.886;3.890;2023-08-20T14:13:56;32.10;34.80
81136;DHT22;70622;50.886;3.890;2023-08-20T14:16:21;32.00;36.10
81136;DHT22;70622;50.886;3.890;2023-08-20T14:18:47;31.60;35.70
81136;DHT22;70622;50.886;3.890;2023-08-20T14:21:12;31.10;36.80
81136;DHT22;70622;50.886;3.890;2023-08-20T14:23:38;30.70;37.30
81136;DHT22;70622;50.886;3.890;2023-08-20T14:26:04;30.30;37.00
81136;DHT22;70622;50.886;3.890;2023-08-20T14:28:29;30.30;38.10
81136;DHT22;70622;50.886;3.890;2023-08-20T14:30:55;30.10;37.60
81136;DHT22;70622;50.886;3.890;2023-08-20T14:33:20;30.50;38.60
81136;DHT22;70622;50.886;3.890;2023-08-20T14:35:46;31.80;37.20
81136;DHT22;70622;50.886;3.890;2023-08-20T14:38:12;33.10;33.70
81136;DHT22;70622;50.886;3.890;2023-08-20T14:40:39;34.90;31.60
81136;DHT22;70622;50.886;3.890;2023-08-20T14:43:08;36.10;29.30
81136;DHT22;70622;50.886;3.890;2023-08-20T14:45:34;36.70;28.20
81136;DHT22;70622;50.886;3.890;2023-08-20T14:47:59;37.30;28.10
81136;DHT22;70622;50.886;3.890;2023-08-20T14:50:25;38.00;26.90
81136;DHT22;70622;50.886;3.890;2023-08-20T14:52:50;38.80;26.80
81136;DHT22;70622;50.886;3.890;2023-08-20T14:55:19;39.80;25.40
81136;DHT22;70622;50.886;3.890;2023-08-20T14:57:45;40.00;24.50
81136;DHT22;70622;50.886;3.890;2023-08-20T15:00:11;40.70;24.30
81136;DHT22;70622;50.886;3.890;2023-08-20T15:02:39;40.90;24.70
81136;DHT22;70622;50.886;3.890;2023-08-20T15:05:05;41.40;24.10
81136;DHT22;70622;50.886;3.890;2023-08-20T15:07:31;41.10;23.90
81136;DHT22;70622;50.886;3.890;2023-08-20T15:09:56;40.60;23.80
81136;DHT22;70622;50.886;3.890;2023-08-20T15:12:22;40.10;24.20
81136;DHT22;70622;50.886;3.890;2023-08-20T15:14:47;39.40;24.60
81136;DHT22;70622;50.886;3.890;2023-08-20T15:17:13;39.60;24.20
81136;DHT22;70622;50.886;3.890;2023-08-20T15:19:38;39.40;24.50
81136;DHT22;70622;50.886;3.890;2023-08-20T15:22:04;39.80;24.50
81136;DHT22;70622;50.886;3.890;2023-08-20T15:24:30;39.40;26.10
81136;DHT22;70622;50.886;3.890;2023-08-20T15:26:56;38.60;26.90
81136;DHT22;70622;50.886;3.890;2023-08-20T15:29:21;38.20;27.50
81136;DHT22;70622;50.886;3.890;2023-08-20T15:31:47;37.40;29.20
81136;DHT22;70622;50.886;3.890;2023-08-20T15:34:14;36.80;29.60
81136;DHT22;70622;50.886;3.890;2023-08-20T15:36:39;37.20;29.40
81136;DHT22;70622;50.886;3.890;2023-08-20T15:39:05;35.90;30.10
81136;DHT22;70622;50.886;3.890;2023-08-20T15:41:31;35.90;30.90
81136;DHT22;70622;50.886;3.890;2023-08-20T15:43:57;36.60;29.50